Disclaimer

Please do not use the information listed here in-flight or in-navigation, as they are not provided to us by the airports but are provided by volunteers, so they might be outdated.

Search


Regions


Airport information page

No radio frequency information is available.

Airport informations:
Latitude: 41° 10' 47.84" N
Longitude: 020° 44' 32.37" E
Elevation: 2313 feet - 705 meters
Operating hours: Remarks
Operating agency: Civil government, landing fees and diplomatic clearance may be required
Timezone: UTC+1(+2DT) - Dates notified by NOTAM
Fuel: N/A

Runway information:
02/20 - 8366 x 140 feet< - >2550 x 43 meters

Recent METARs:
LWOH 201430Z 35002KT 9999 SCT010 BKN040 10/08 Q1013
LWOH 201500Z 00000KT 8000 RA SCT010 OVC040 09/08 Q1013
LWOH 201530Z VRB01KT 9999 SCT010 OVC040 09/08 Q1013

Airport on the map: